• Join FlightAware (Why Join?)
  • Login
  • US Flag 
06:22PM EDT


 

Airport Tracker/Info


-or-


 

Live Flight TrackerFlight Track Log ✈ CES5695 ✈ 05-Nov-2013 ✈ ZBAA / PEK - ZHLY / LYA

Flight Track Log - Related Links

Times and Time Zones

All times are in EST time to prevent confusion due to time zone crossing. See the CES5695 flight status page for this flight to view local times or setup timezone preferences in your user account.

Time Position Orientation Groundspeed Altitude Reporting Facility
EST Latitude Longitude Course Direction KTS MPH feet Rate Location/Type
12:18AM 40.1320 116.5460 316° Northwest 2,700  Level FlightAware
12:19AM 40.1820 116.4940 322° Northwest 4,700 2,400 Climbing FlightAware
12:19AM 40.2130 116.4590 319° Northwest 6,300 3,060 Climbing FlightAware
12:20AM 40.1910 116.3760 251° West 207 238 9,600 3,060 Climbing FlightAware
12:21AM 40.1570 116.3030 239° Southwest 259 298 12,000 2,760 Climbing FlightAware
12:22AM 40.1290 116.2430 239° Southwest 273 314 14,000 2,340 Climbing FlightAware
12:23AM 40.0900 116.1590 239° Southwest 16,700 2,160 Climbing FlightAware
12:24AM 40.0590 116.0910 239° Southwest 288 331 17,700 1,020 Climbing FlightAware
12:24AM 40.0500 116.0690 242° Southwest 293 337 17,700  Level FlightAware
12:25AM 40.0640 115.9940 284° West 264 304 17,700  Level FlightAware
12:26AM 40.0970 115.9130 298° West 265 305 17,700 660 Level FlightAware
12:27AM 40.1280 115.8360 298° West 18,000 1,080 Climbing FlightAware
12:27AM 40.1410 115.7890 290° West 19,200 1,800 Climbing FlightAware
12:27AM 40.1290 115.7510 248° West 252 290 19,700 600 Climbing FlightAware
12:28AM 40.1010 115.7270 213° Southwest 237 273 19,700  Level FlightAware
12:29AM 40.0240 115.6650 212° Southwest 301 346 19,700 240 Level FlightAware
12:30AM 39.9670 115.6190 212° Southwest 311 358 20,200 1,020 Climbing FlightAware
12:31AM 39.8840 115.5510 212° Southwest 21,900 1,140 Climbing FlightAware
12:33AM 39.7450 115.4300 214° Southwest 329 379 23,600 1,200 Climbing FlightAware
12:33AM 39.7080 115.3800 226° Southwest 333 383 24,800 1,980 Climbing FlightAware
12:34AM 39.6650 115.3190 228° Southwest 352 405 26,000 1,680 Climbing FlightAware
12:34AM 39.6350 115.2770 227° Southwest 348 400 26,700 1,440 Climbing FlightAware
12:35AM 39.5970 115.2240 227° Southwest 355 409 27,500 1,440 Climbing FlightAware
12:36AM 39.5430 115.1490 227° Southwest 27,600 120 Climbing FlightAware
12:40AM 39.4145 115.0773 206° Southwest  Level Estimated
12:40AM 39.1980 114.7060 205° Southwest 27,600  Level FlightAware
12:41AM 39.3407 115.0319 205° Southwest  Level Estimated
12:43AM 39.0454 114.6215 203° Southwest  Level Estimated
12:44AM 38.9703 114.5801 203° Southwest  Level Estimated
12:45AM 38.8952 114.5388 203° Southwest  Level Estimated
12:46AM 38.8201 114.4976 203° Southwest  Level Estimated
12:46AM 38.6560 114.6560 203° Southwest 27,600  Level FlightAware
12:46AM 38.6410 114.6580 174° South 27,600  Level FlightAware
12:48AM 38.3660 114.6890 206° Southwest 27,600  Level FlightAware
12:49AM 38.4447 114.5374 206° Southwest  Level Estimated
12:49AM 38.3120 114.6950 175° South 27,600  Level FlightAware
12:52AM 38.1319 114.5726 208° Southwest  Level Estimated
12:53AM 38.0598 114.5238 208° Southwest  Level Estimated
12:53AM 37.9070 114.7420 208° Southwest 22,000  Level FlightAware
12:53AM 37.8960 114.7440 172° South 21,800 -2,040 Descending FlightAware
12:54AM 37.9877 114.4752 208° Southwest  Level Estimated
12:57AM 37.6504 114.5523 212° Southwest  Level Estimated
12:58AM 37.5808 114.4982 212° Southwest  Level Estimated
12:59AM 37.5113 114.4443 212° Southwest  Level Estimated
01:00AM 37.4417 114.3905 212° Southwest  Level Estimated
01:01AM 37.3720 114.3367 212° Southwest  Level Estimated
01:02AM 37.3023 114.2831 211° Southwest  Level Estimated
01:03AM 37.2327 114.2296 211° Southwest  Level Estimated
01:04AM 37.1629 114.1762 211° Southwest  Level Estimated
01:05AM 37.0932 114.1228 211° Southwest  Level Estimated
01:06AM 37.0235 114.0696 211° Southwest  Level Estimated
01:07AM 36.9537 114.0164 211° Southwest  Level Estimated
01:08AM 36.8839 113.9634 211° Southwest  Level Estimated
01:09AM 36.8140 113.9105 211° Southwest  Level Estimated
01:10AM 36.7442 113.8576 211° Southwest  Level Estimated
01:11AM 36.6743 113.8048 211° Southwest  Level Estimated
01:12AM 36.6044 113.7522 211° Southwest  Level Estimated
01:13AM 36.5345 113.6996 211° Southwest  Level Estimated
01:14AM 36.4646 113.6472 211° Southwest  Level Estimated
01:15AM 36.4033 113.6013 211° Southwest  Level Estimated
01:16AM 36.3421 113.5556 211° Southwest  Level Estimated
01:17AM 36.2808 113.5099 211° Southwest  Level Estimated
01:18AM 36.2196 113.4643 211° Southwest  Level Estimated
01:19AM 36.1583 113.4187 211° Southwest  Level Estimated
01:20AM 36.0970 113.3733 211° Southwest  Level Estimated
01:21AM 36.0356 113.3279 211° Southwest  Level Estimated
01:22AM 35.9743 113.2825 211° Southwest  Level Estimated
01:23AM 35.9129 113.2373 211° Southwest  Level Estimated
01:24AM 35.8516 113.1921 211° Southwest  Level Estimated
01:25AM 35.7902 113.1470 211° Southwest  Level Estimated
01:26AM 35.7288 113.1019 211° Southwest  Level Estimated
01:27AM 35.6673 113.0569 211° Southwest  Level Estimated
01:28AM 35.6059 113.0120 211° Southwest  Level Estimated
01:29AM 35.5444 112.9672 211° Southwest  Level Estimated
01:30AM 35.4829 112.9224 211° Southwest  Level Estimated
01:31AM 35.4215 112.8777 211° Southwest  Level Estimated
01:32AM 35.3600 112.8331 211° Southwest  Level Estimated
01:33AM 35.2984 112.7885 211° Southwest  Level Estimated
01:34AM 35.2369 112.7440 211° Southwest  Level Estimated
01:35AM 35.1753 112.6995 211° Southwest  Level Estimated
01:36AM 35.1138 112.6552 211° Southwest  Level Estimated
01:37AM 35.0522 112.6109 210° Southwest  Level Estimated
01:38AM 34.9906 112.5667 210° Southwest  Level Estimated
01:39AM 34.9289 112.5225 210° Southwest  Level Estimated
01:40AM 34.8673 112.4784 210° Southwest  Level Estimated
01:41AM 34.8056 112.4343 210° Southwest  Level Estimated
01:42AM 34.7440 112.3904 210° Southwest  Level Estimated
01:43AM 34.7411 112.3883 210° Southwest  Level Estimated
01:44AM 34.7411 112.3883 68° East  Level Estimated
01:45AM 34.7411 112.3883 68° East  Level Estimated
01:46AM 34.7411 112.3883 68° East  Level Estimated
01:47AM 34.7411 112.3883 68° East  Level Estimated
01:48AM 34.7411 112.3883 68° East  Level Estimated
01:49AM 34.7411 112.3883 68° East  Level Estimated
01:50AM 34.7411 112.3883 68° East  Level Estimated